Leechburg, Pennsylvania
Current Conditions -  °F | °C
As of 4:35 PM on Friday 31 Oct 2014 (Local Time) from KBTP Reporting Station
Overcast Overcast  
Wind Chill: 43°   Ceiling: 3500
Heat Index: 43°   Visibility: 9mi
Dew Point: 37°   Wind: 0mph
Humidity: 81%   Direction: NA
Pressure: 29.88"   Gusts: NA
Location:  40.63°N, 79.61°W
Report Text: KBTP 312035Z AUTO 00000KT 9SM BKN035 OVC043 06/03 A2988 RMK AO1
Loading
Personal Weather Stations






























Interactive Weather Map New forecast layout! Learn more

10-Day Weather Forecast

Advertisements
Track Severe Weather on mobile